Time;durP1;ratioP1;P1;durP2;ratioP2;P2;SDS_P1;SDS_P2;PMS_P1;PMS_P2;Temp;Humidity;BMP_temperature;BMP_pressure;BME280_temperature;BME280_humidity;BME280_pressure;Samples;Min_cycle;Max_cycle;Signal;HPM_P1;HPM_P2
2023/03/17 00:01:52;;;;;;;1.90;0.60;;;;;;;19.58;41.71;100779.31;5036269;27;97355;-74
2023/03/17 00:04:21;;;;;;;0.98;0.57;;;;;;;19.63;41.32;100776.94;5043624;27;97210;-74
2023/03/17 00:06:48;;;;;;;0.95;0.50;;;;;;;19.66;41.25;100783.94;5025319;27;96785;-74
2023/03/17 00:09:16;;;;;;;0.60;0.40;;;;;;;19.59;41.40;100789.19;5020315;27;96992;-74
2023/03/17 00:11:45;;;;;;;0.70;0.50;;;;;;;19.61;41.57;100789.88;5036501;27;97572;-74
2023/03/17 00:14:11;;;;;;;0.60;0.40;;;;;;;19.58;41.69;100795.66;5042791;27;96741;-74
2023/03/17 00:16:44;;;;;;;0.55;0.45;;;;;;;19.60;41.34;100798.22;5028551;27;97399;-74
2023/03/17 00:19:16;;;;;;;0.70;0.45;;;;;;;19.62;41.59;100797.03;5040594;27;97038;-74
2023/03/17 00:21:44;;;;;;;1.27;0.40;;;;;;;19.61;41.75;100802.66;5048887;27;96608;-74
2023/03/17 00:24:12;;;;;;;0.80;0.50;;;;;;;19.57;41.79;100798.56;5038144;27;97668;-74
2023/03/17 00:26:41;;;;;;;0.65;0.40;;;;;;;19.68;41.17;100800.97;5039548;27;97009;-74
2023/03/17 00:29:08;;;;;;;0.70;0.40;;;;;;;19.62;41.48;100797.03;5022250;27;96674;-74
2023/03/17 00:31:36;;;;;;;0.80;0.43;;;;;;;19.59;41.37;100791.94;5029395;27;99373;-74
2023/03/17 00:34:03;;;;;;;0.75;0.55;;;;;;;19.63;41.59;100784.25;5047309;27;96815;-74
2023/03/17 00:36:32;;;;;;;0.90;0.68;;;;;;;19.58;41.14;100789.38;5047513;27;96981;-74
2023/03/17 00:39:02;;;;;;;0.40;0.35;;;;;;;19.55;41.41;100782.38;5049739;27;96770;-74
2023/03/17 00:41:28;;;;;;;0.60;0.50;;;;;;;19.60;41.37;100773.72;5041501;27;98098;-74
2023/03/17 00:43:56;;;;;;;0.68;0.52;;;;;;;19.60;41.57;100773.72;5028363;27;97126;-74
2023/03/17 00:46:34;;;;;;;0.80;0.55;;;;;;;19.59;41.56;100761.97;5037300;27;96737;-74
2023/03/17 00:49:04;;;;;;;0.77;0.40;;;;;;;19.58;41.37;100765.72;5027305;27;97515;-74
2023/03/17 00:51:31;;;;;;;0.73;0.50;;;;;;;19.60;41.24;100765.53;5047543;27;97799;-74
2023/03/17 00:53:57;;;;;;;0.50;0.40;;;;;;;19.58;41.42;100767.56;5027309;27;96989;-74
2023/03/17 00:56:26;;;;;;;0.60;0.40;;;;;;;19.58;41.29;100764.84;5019408;27;96984;-74
2023/03/17 00:58:53;;;;;;;0.93;0.40;;;;;;;19.62;41.25;100766.22;5042853;27;96848;-74
2023/03/17 01:01:19;;;;;;;0.82;0.40;;;;;;;19.63;41.16;100762.47;5044843;27;97479;-74
2023/03/17 01:03:46;;;;;;;1.27;0.60;;;;;;;19.55;41.14;100757.03;5022618;27;96662;-74
2023/03/17 01:06:14;;;;;;;0.88;0.47;;;;;;;19.52;41.63;100752.75;5049544;27;96643;-74
2023/03/17 01:08:41;;;;;;;0.52;0.50;;;;;;;19.50;41.18;100754.78;5031119;27;96836;-74
2023/03/17 01:11:14;;;;;;;0.52;0.50;;;;;;;19.55;41.29;100746.13;5031453;27;100794;-74
2023/03/17 01:13:41;;;;;;;0.98;0.57;;;;;;;19.58;41.44;100740.34;5026084;27;98862;-74
2023/03/17 01:16:09;;;;;;;1.70;0.70;;;;;;;19.53;41.43;100742.72;5042161;27;97114;-74
2023/03/17 01:18:37;;;;;;;0.70;0.40;;;;;;;19.54;41.42;100738.97;5045405;27;96687;-74
2023/03/17 01:21:04;;;;;;;0.68;0.50;;;;;;;19.52;41.52;100746.44;5024245;27;99222;-74
2023/03/17 01:23:31;;;;;;;0.68;0.57;;;;;;;19.55;41.31;100743.41;5010208;27;98208;-74
2023/03/17 01:25:57;;;;;;;0.85;0.60;;;;;;;19.51;41.29;100742.84;5026200;27;96888;-74
2023/03/17 01:28:24;;;;;;;0.52;0.40;;;;;;;19.51;41.45;100751.03;5028513;27;96880;-74
2023/03/17 01:30:51;;;;;;;1.90;0.50;;;;;;;19.50;41.37;100749.31;5026541;27;97569;-74
2023/03/17 01:33:17;;;;;;;0.70;0.43;;;;;;;19.49;41.46;100746.78;5027137;27;98279;-74
2023/03/17 01:35:47;;;;;;;0.50;0.50;;;;;;;19.46;41.44;100734.34;5048363;27;97146;-74
2023/03/17 01:38:14;;;;;;;1.05;0.50;;;;;;;19.46;41.38;100730.75;5046609;27;97080;-74
2023/03/17 01:40:49;;;;;;;0.40;0.40;;;;;;;19.47;41.39;100737.91;5011579;27;99508;-74
2023/03/17 01:43:17;;;;;;;0.65;0.50;;;;;;;19.51;41.49;100740.13;5031311;27;99479;-74
2023/03/17 01:46:23;;;;;;;0.45;0.40;;;;;;;19.54;41.41;100734.38;5031147;27;96910;-74
2023/03/17 01:49:26;;;;;;;0.68;0.60;;;;;;;19.61;41.29;100732.66;5040928;27;96906;-74
2023/03/17 01:52:09;;;;;;;0.80;0.50;;;;;;;19.63;40.98;100722.47;5032600;27;97676;-74
2023/03/17 01:54:44;;;;;;;0.77;0.57;;;;;;;19.65;41.05;100722.28;5038219;27;97309;-74
2023/03/17 01:57:18;;;;;;;0.70;0.43;;;;;;;19.63;41.10;100727.91;5040888;27;97014;-74
2023/03/17 01:59:50;;;;;;;0.80;0.60;;;;;;;19.63;41.16;100725.19;5041205;27;96705;-74
2023/03/17 02:02:24;;;;;;;1.02;0.40;;;;;;;19.62;41.11;100719.91;5042554;27;98513;-74
2023/03/17 02:04:51;;;;;;;0.52;0.40;;;;;;;19.62;40.80;100714.44;5027618;27;96809;-73
2023/03/17 02:07:21;;;;;;;0.50;0.50;;;;;;;19.63;40.75;100717.00;5005625;27;97171;-74
2023/03/17 02:09:48;;;;;;;0.60;0.50;;;;;;;19.64;41.24;100718.72;5044706;27;96809;-74
2023/03/17 02:12:21;;;;;;;0.70;0.40;;;;;;;19.65;40.70;100709.50;5037586;27;98671;-74
2023/03/17 02:14:48;;;;;;;0.88;0.50;;;;;;;19.67;41.14;100712.91;5010030;27;98755;-74
2023/03/17 02:17:14;;;;;;;0.80;0.50;;;;;;;19.69;41.09;100704.56;5042340;27;97273;-74
2023/03/17 02:19:41;;;;;;;0.68;0.52;;;;;;;19.66;41.10;100704.91;5006580;27;96849;-74
2023/03/17 02:22:08;;;;;;;0.88;0.50;;;;;;;19.65;40.72;100701.34;5029062;27;99811;-74
2023/03/17 02:24:42;;;;;;;0.80;0.50;;;;;;;19.64;41.19;100694.19;5027819;27;99973;-74
2023/03/17 02:27:16;;;;;;;0.82;0.45;;;;;;;19.65;41.00;100706.78;5038771;27;96814;-74
2023/03/17 02:29:45;;;;;;;0.88;0.50;;;;;;;19.64;40.65;100705.09;5038546;27;96813;-74
2023/03/17 02:32:17;;;;;;;0.60;0.45;;;;;;;19.64;41.00;100706.97;5044634;27;96892;-74
2023/03/17 02:34:45;;;;;;;1.10;0.60;;;;;;;19.64;40.90;100699.63;5031676;27;99174;-74
2023/03/17 02:37:13;;;;;;;0.57;0.40;;;;;;;19.64;40.62;100702.38;5044904;27;97059;-74
2023/03/17 02:39:39;;;;;;;0.75;0.75;;;;;;;19.63;40.91;100697.94;5022232;27;96993;-74
2023/03/17 02:42:07;;;;;;;0.70;0.40;;;;;;;19.66;40.71;100694.88;5029592;27;98805;-74
2023/03/17 02:44:34;;;;;;;0.73;0.43;;;;;;;19.69;41.05;100693.69;5024966;27;97342;-74
2023/03/17 02:47:02;;;;;;;0.43;0.40;;;;;;;19.67;40.62;100696.56;5027476;27;97560;-74
2023/03/17 02:49:30;;;;;;;0.85;0.52;;;;;;;19.67;40.61;100693.00;5023777;27;96796;-74
2023/03/17 02:51:57;;;;;;;1.05;0.57;;;;;;;19.67;41.03;100688.41;5047155;27;96896;-74
2023/03/17 02:54:23;;;;;;;0.50;0.40;;;;;;;19.67;40.60;100680.22;5036574;27;97031;-74
2023/03/17 02:56:50;;;;;;;0.50;0.43;;;;;;;19.65;40.65;100686.88;5039733;27;96616;-74
2023/03/17 02:59:16;;;;;;;0.50;0.40;;;;;;;19.66;40.71;100681.25;5040771;27;96833;-74
2023/03/17 03:01:42;;;;;;;0.47;0.38;;;;;;;19.67;40.86;100682.09;5046184;27;97938;-74
2023/03/17 03:04:09;;;;;;;0.70;0.50;;;;;;;19.67;40.79;100685.66;5044770;27;97464;-74
2023/03/17 03:06:36;;;;;;;1.35;0.70;;;;;;;19.70;40.97;100689.94;5042510;27;96933;-74
2023/03/17 03:09:02;;;;;;;0.80;0.50;;;;;;;19.69;40.78;100685.50;5023057;27;96734;-74
2023/03/17 03:11:29;;;;;;;0.60;0.47;;;;;;;19.73;40.33;100669.66;5043837;27;98158;-74
2023/03/17 03:13:56;;;;;;;0.52;0.40;;;;;;;19.71;40.58;100669.84;5022553;27;99383;-74
2023/03/17 03:16:22;;;;;;;0.70;0.50;;;;;;;19.72;40.76;100687.88;5044875;27;97143;-74
2023/03/17 03:18:49;;;;;;;0.63;0.40;;;;;;;19.73;40.56;100675.97;5041888;27;96910;-74
2023/03/17 03:21:16;;;;;;;0.60;0.50;;;;;;;19.74;40.51;100679.53;5043668;27;97493;-74
2023/03/17 03:23:42;;;;;;;0.68;0.45;;;;;;;19.73;40.73;100677.84;5042423;27;96861;-74
2023/03/17 03:26:09;;;;;;;0.65;0.50;;;;;;;19.74;40.40;100674.94;5037962;27;96961;-74
2023/03/17 03:28:36;;;;;;;0.65;0.50;;;;;;;19.76;40.30;100666.59;5039297;27;96963;-74
2023/03/17 03:31:02;;;;;;;0.52;0.40;;;;;;;19.75;40.24;100665.75;5046269;27;96664;-74
2023/03/17 03:33:30;;;;;;;0.50;0.40;;;;;;;19.77;40.46;100676.47;5025825;27;100616;-74
2023/03/17 03:35:56;;;;;;;0.93;0.55;;;;;;;19.73;40.24;100675.09;5036902;27;96859;-74
2023/03/17 03:38:23;;;;;;;0.60;0.50;;;;;;;19.72;40.48;100674.25;5049299;27;96817;-74
2023/03/17 03:40:50;;;;;;;0.70;0.50;;;;;;;19.70;40.30;100672.72;5028811;27;98558;-74
2023/03/17 03:43:17;;;;;;;0.95;0.60;;;;;;;19.71;40.42;100674.44;5042109;27;97048;-74
2023/03/17 03:45:50;;;;;;;0.73;0.50;;;;;;;19.71;40.45;100671.72;5029299;27;96981;-74
2023/03/17 03:48:17;;;;;;;0.60;0.50;;;;;;;19.71;40.46;100680.72;5039798;27;99293;-74
2023/03/17 03:50:43;;;;;;;0.50;0.40;;;;;;;19.71;40.42;100679.88;5035601;27;97727;-74
2023/03/17 03:53:10;;;;;;;0.98;0.50;;;;;;;19.74;40.24;100687.72;5037792;27;97615;-74
2023/03/17 03:55:36;;;;;;;0.95;0.50;;;;;;;19.70;40.33;100689.06;5040279;27;96886;-74
2023/03/17 03:58:03;;;;;;;0.70;0.50;;;;;;;19.70;40.43;100684.47;5042835;27;96883;-74
2023/03/17 04:00:30;;;;;;;0.40;0.30;;;;;;;19.70;40.63;100691.81;5025032;27;97644;-74
2023/03/17 04:02:59;;;;;;;0.50;0.40;;;;;;;19.70;40.53;100702.69;5042749;27;96929;-74
2023/03/17 04:05:25;;;;;;;0.70;0.50;;;;;;;19.73;40.24;100700.47;5024624;27;97333;-74
2023/03/17 04:07:52;;;;;;;0.75;0.50;;;;;;;19.73;40.29;100694.19;5051019;27;96872;-74
2023/03/17 04:10:18;;;;;;;0.40;0.40;;;;;;;19.73;40.50;100705.94;5020457;27;100191;-74
2023/03/17 04:12:45;;;;;;;0.75;0.50;;;;;;;19.69;40.40;100707.28;5049402;27;96718;-74
2023/03/17 04:15:15;;;;;;;0.63;0.40;;;;;;;19.74;40.61;100706.78;5036460;27;96643;-74
2023/03/17 04:17:42;;;;;;;0.70;0.40;;;;;;;19.71;40.32;100713.44;5044081;27;96832;-74
2023/03/17 04:20:11;;;;;;;1.40;0.60;;;;;;;19.71;40.57;100718.03;5049900;27;97233;-74
2023/03/17 04:22:38;;;;;;;0.50;0.40;;;;;;;19.71;40.64;100707.97;5049779;27;97201;-74
2023/03/17 04:25:05;;;;;;;0.70;0.57;;;;;;;19.73;40.30;100707.81;5047783;27;96637;-74
2023/03/17 04:27:31;;;;;;;0.60;0.40;;;;;;;19.73;40.20;100707.81;5050405;27;97297;-74
2023/03/17 04:29:58;;;;;;;1.17;0.40;;;;;;;19.72;40.57;100700.66;5041601;27;96903;-74
2023/03/17 04:32:25;;;;;;;1.13;0.63;;;;;;;19.71;40.14;100696.22;5038773;27;96925;-74
2023/03/17 04:34:53;;;;;;;1.05;0.52;;;;;;;19.72;40.33;100696.06;5043277;27;96775;-74
2023/03/17 04:37:19;;;;;;;0.60;0.40;;;;;;;19.73;40.48;100696.91;5043192;27;96656;-73
2023/03/17 04:39:46;;;;;;;0.60;0.60;;;;;;;19.72;40.14;100706.09;5021754;27;99002;-74
2023/03/17 04:42:13;;;;;;;0.65;0.45;;;;;;;19.71;40.51;100702.53;5042712;27;97746;-74
2023/03/17 04:44:40;;;;;;;0.77;0.45;;;;;;;19.71;40.12;100705.25;5038861;27;96768;-74
2023/03/17 04:47:06;;;;;;;0.60;0.30;;;;;;;19.71;40.59;100702.53;5027471;27;97095;-74
2023/03/17 04:49:33;;;;;;;0.88;0.50;;;;;;;19.69;40.26;100707.28;5039333;27;98624;-74
2023/03/17 04:52:00;;;;;;;0.60;0.50;;;;;;;19.72;40.44;100700.66;5021657;27;97076;-74
2023/03/17 04:54:26;;;;;;;0.70;0.50;;;;;;;19.73;40.33;100713.25;5023643;27;97384;-74
2023/03/17 04:56:53;;;;;;;0.50;0.40;;;;;;;19.72;40.48;100714.28;5043968;27;96854;-74
2023/03/17 04:59:19;;;;;;;0.57;0.40;;;;;;;19.73;40.19;100716.84;5041216;27;96902;-74
2023/03/17 05:01:46;;;;;;;0.73;0.68;;;;;;;19.72;40.18;100725.19;5038284;27;96667;-74
2023/03/17 05:04:13;;;;;;;0.50;0.50;;;;;;;19.70;40.46;100709.00;5045351;27;96643;-73
2023/03/17 05:06:57;;;;;;;0.65;0.50;;;;;;;19.70;40.10;100709.00;5041752;27;97333;-74
2023/03/17 05:09:24;;;;;;;0.55;0.40;;;;;;;19.72;40.32;100703.38;5024485;27;98605;-74
2023/03/17 05:11:51;;;;;;;1.20;0.60;;;;;;;19.71;40.31;100712.56;5040206;27;98742;-74
2023/03/17 05:14:17;;;;;;;1.08;0.50;;;;;;;19.71;40.24;100701.69;5019920;27;96734;-74
2023/03/17 05:16:46;;;;;;;0.50;0.40;;;;;;;19.70;40.52;100708.16;5018361;27;97261;-74
2023/03/17 05:19:13;;;;;;;0.95;0.43;;;;;;;19.70;40.25;100706.28;5038966;27;98256;-74
2023/03/17 05:21:41;;;;;;;1.65;0.50;;;;;;;19.71;40.05;100702.53;5036423;27;96896;-74
2023/03/17 05:24:08;;;;;;;0.43;0.40;;;;;;;19.71;40.30;100694.34;5045753;27;96851;-74
2023/03/17 05:26:35;;;;;;;0.60;0.50;;;;;;;19.73;40.01;100691.47;5019848;27;96946;-74
2023/03/17 05:29:02;;;;;;;0.80;0.47;;;;;;;19.74;39.96;100688.56;5042947;27;98396;-74
2023/03/17 05:31:29;;;;;;;0.73;0.43;;;;;;;19.71;40.43;100682.59;5039851;27;97982;-74
2023/03/17 05:33:56;;;;;;;0.73;0.50;;;;;;;19.71;40.19;100682.59;5041279;27;96779;-74
2023/03/17 05:36:23;;;;;;;0.50;0.30;;;;;;;19.69;40.32;100677.31;5038027;27;96831;-74
2023/03/17 05:38:51;;;;;;;0.63;0.52;;;;;;;19.67;40.02;100677.50;5024255;27;97172;-74
2023/03/17 05:41:17;;;;;;;0.70;0.47;;;;;;;19.69;40.21;100680.06;5036014;27;97282;-74
2023/03/17 05:43:44;;;;;;;0.95;0.60;;;;;;;19.67;40.39;100687.53;5038650;27;97426;-74
2023/03/17 05:46:10;;;;;;;0.70;0.50;;;;;;;19.67;40.49;100699.28;5035494;27;96732;-74
2023/03/17 05:48:37;;;;;;;1.00;0.50;;;;;;;19.68;40.21;100716.50;5019548;27;99350;-74
2023/03/17 05:51:04;;;;;;;1.20;0.60;;;;;;;19.68;40.15;100702.88;5019639;27;100375;-74
2023/03/17 05:53:30;;;;;;;0.70;0.50;;;;;;;19.70;40.00;100697.25;5019558;27;97424;-74
2023/03/17 05:55:57;;;;;;;0.65;0.40;;;;;;;19.67;40.06;100702.03;5045458;27;97143;-74
2023/03/17 05:58:23;;;;;;;1.25;0.40;;;;;;;19.69;40.05;100696.41;5023654;27;99847;-74
2023/03/17 06:00:50;;;;;;;0.70;0.50;;;;;;;19.72;40.42;100695.22;5036078;27;97784;-74
2023/03/17 06:03:16;;;;;;;0.60;0.45;;;;;;;19.71;40.31;100701.69;5041498;27;96766;-74
2023/03/17 06:05:43;;;;;;;0.52;0.40;;;;;;;19.67;40.31;100696.56;5039506;27;96510;-74
2023/03/17 06:08:10;;;;;;;0.65;0.50;;;;;;;19.68;40.02;100695.56;5038586;27;96729;-74
2023/03/17 06:10:36;;;;;;;0.90;0.40;;;;;;;19.70;39.91;100695.38;5018193;27;98942;-74
2023/03/17 06:13:03;;;;;;;0.65;0.55;;;;;;;19.70;40.07;100689.94;5043066;27;97072;-74
2023/03/17 06:15:30;;;;;;;0.60;0.50;;;;;;;19.71;39.91;100694.34;5044435;27;96788;-74
2023/03/17 06:17:58;;;;;;;0.80;0.50;;;;;;;19.69;40.33;100696.41;5021613;27;99614;-74
2023/03/17 06:20:24;;;;;;;0.80;0.60;;;;;;;19.71;40.11;100704.41;5017809;27;97494;-74
2023/03/17 06:22:51;;;;;;;0.75;0.57;;;;;;;19.70;40.34;100714.44;5039829;27;96886;-74
2023/03/17 06:25:30;;;;;;;0.90;0.55;;;;;;;19.72;40.14;100706.09;5022569;27;96954;-74
2023/03/17 06:27:57;;;;;;;0.93;0.50;;;;;;;19.69;39.92;100710.03;5023960;27;100979;-74
2023/03/17 06:30:23;;;;;;;0.52;0.40;;;;;;;19.68;40.03;100698.28;5044631;27;96835;-74
2023/03/17 06:32:50;;;;;;;0.63;0.50;;;;;;;19.73;40.13;100705.06;5037165;27;96825;-74
2023/03/17 06:35:16;;;;;;;0.68;0.40;;;;;;;19.71;40.21;100698.94;5041771;27;96889;-74
2023/03/17 06:37:43;;;;;;;0.80;0.40;;;;;;;19.73;39.80;100694.19;5037676;27;96716;-74
2023/03/17 06:40:11;;;;;;;0.85;0.50;;;;;;;19.71;40.14;100696.22;5037117;27;97013;-74
2023/03/17 06:42:37;;;;;;;0.93;0.60;;;;;;;19.68;40.26;100702.88;5019944;27;96798;-74
2023/03/17 06:45:05;;;;;;;0.82;0.47;;;;;;;19.71;40.32;100701.69;5024985;27;96965;-74
2023/03/17 06:47:32;;;;;;;0.80;0.45;;;;;;;19.71;40.23;100696.22;5015743;27;97364;-74
2023/03/17 06:49:59;;;;;;;0.80;0.60;;;;;;;19.72;40.18;100700.66;5033335;27;96964;-74
2023/03/17 06:52:26;;;;;;;0.45;0.40;;;;;;;19.73;40.05;100713.25;5042161;27;96983;-74
2023/03/17 06:54:53;;;;;;;0.82;0.40;;;;;;;19.74;40.06;100701.34;5035770;27;97280;-74
2023/03/17 06:57:19;;;;;;;0.70;0.50;;;;;;;19.75;40.08;100697.59;5041652;27;97735;-74
2023/03/17 06:59:46;;;;;;;1.00;0.60;;;;;;;19.73;40.16;100689.59;5038118;27;96826;-74
2023/03/17 07:02:13;;;;;;;0.88;0.45;;;;;;;19.75;40.03;100684.81;5039064;27;96863;-74
2023/03/17 07:04:40;;;;;;;1.50;0.40;;;;;;;19.74;39.81;100688.56;5017849;27;96962;-73
2023/03/17 07:07:07;;;;;;;0.77;0.55;;;;;;;19.72;39.79;100690.59;5021289;27;99359;-74
2023/03/17 07:09:34;;;;;;;0.70;0.50;;;;;;;19.73;39.77;100694.19;5039536;27;96699;-74
2023/03/17 07:12:03;;;;;;;1.20;0.50;;;;;;;19.75;40.10;100694.84;5017065;27;96739;-74
2023/03/17 07:14:35;;;;;;;1.17;0.65;;;;;;;19.75;40.06;100692.13;5044556;27;96831;-74
2023/03/17 07:17:03;;;;;;;0.55;0.40;;;;;;;19.75;39.89;100703.88;5039679;27;96897;-74
2023/03/17 07:19:31;;;;;;;0.60;0.40;;;;;;;19.76;39.93;100708.31;5043640;27;97193;-74
2023/03/17 07:21:58;;;;;;;0.52;0.50;;;;;;;19.73;40.03;100705.06;5020121;27;96918;-74
2023/03/17 07:24:24;;;;;;;0.68;0.40;;;;;;;19.75;40.18;100705.75;5027062;27;96971;-74
2023/03/17 07:26:51;;;;;;;1.27;0.45;;;;;;;19.74;39.83;100712.22;5026125;27;97572;-73
2023/03/17 07:29:18;;;;;;;1.00;0.47;;;;;;;19.76;40.11;100710.19;5040801;27;97635;-73
2023/03/17 07:31:44;;;;;;;0.70;0.40;;;;;;;19.75;40.04;100709.34;5023894;27;96933;-73
2023/03/17 07:34:11;;;;;;;0.60;0.40;;;;;;;19.75;39.93;100703.88;5040147;27;96669;-73
2023/03/17 07:36:38;;;;;;;0.70;0.55;;;;;;;19.77;40.12;100698.25;5041449;27;98108;-74
2023/03/17 07:39:05;;;;;;;0.85;0.60;;;;;;;19.77;40.00;100696.38;5045466;27;96890;-73
2023/03/17 07:41:31;;;;;;;1.23;0.60;;;;;;;19.78;39.81;100686.34;5033025;27;97101;-73
2023/03/17 07:43:58;;;;;;;0.60;0.45;;;;;;;19.78;39.69;100683.63;5022825;27;97341;-73
2023/03/17 07:46:25;;;;;;;0.80;0.40;;;;;;;19.80;39.71;100692.47;5021427;27;97591;-73
2023/03/17 07:48:52;;;;;;;0.70;0.50;;;;;;;19.80;39.68;100697.91;5024759;27;97616;-74
2023/03/17 07:51:21;;;;;;;0.63;0.50;;;;;;;19.80;40.03;100693.31;5043443;27;96774;-74
2023/03/17 07:53:51;;;;;;;1.45;0.50;;;;;;;19.81;40.13;100699.63;5039540;27;96940;-73
2023/03/17 07:56:18;;;;;;;0.80;0.60;;;;;;;19.81;39.74;100688.72;5021926;27;97948;-74
2023/03/17 07:58:44;;;;;;;0.60;0.50;;;;;;;19.82;39.89;100687.69;5046684;27;96904;-74
2023/03/17 08:01:11;;;;;;;2.65;0.77;;;;;;;19.87;39.67;100688.88;5027136;27;96752;-73
2023/03/17 08:03:38;;;;;;;0.63;0.55;;;;;;;19.87;40.03;100691.59;5045749;27;96929;-74
2023/03/17 08:06:07;;;;;;;0.82;0.40;;;;;;;19.88;39.65;100690.59;5050086;27;96923;-73
2023/03/17 08:08:34;;;;;;;1.25;0.60;;;;;;;19.89;39.59;100688.72;5052154;27;96728;-73
2023/03/17 08:11:03;;;;;;;0.63;0.40;;;;;;;19.90;39.57;100684.97;5052290;27;96764;-73
2023/03/17 08:13:31;;;;;;;0.80;0.70;;;;;;;19.92;39.50;100691.09;5021163;28;96929;-74
2023/03/17 08:15:58;;;;;;;1.02;0.55;;;;;;;19.92;39.90;100683.75;5048473;27;97684;-74
2023/03/17 08:18:25;;;;;;;0.93;0.50;;;;;;;19.90;39.56;100685.81;5048221;27;97864;-74
2023/03/17 08:20:52;;;;;;;1.08;0.60;;;;;;;19.91;39.37;100690.22;5052437;27;96957;-74
2023/03/17 08:23:19;;;;;;;2.05;0.60;;;;;;;19.91;39.44;100692.09;5034881;27;96996;-75
2023/03/17 08:25:46;;;;;;;1.95;0.60;;;;;;;19.85;39.71;100703.69;5035433;27;97247;-75
2023/03/17 08:28:14;;;;;;;1.20;0.50;;;;;;;19.84;39.75;100699.28;5043825;27;96913;-75
2023/03/17 08:30:43;;;;;;;0.80;0.50;;;;;;;19.83;39.72;100697.56;5039567;27;97237;-75
2023/03/17 08:33:10;;;;;;;0.47;0.47;;;;;;;19.80;39.96;100692.47;5034996;27;96730;-75
2023/03/17 08:35:40;;;;;;;0.80;0.50;;;;;;;19.82;39.93;100687.69;5038857;27;97784;-75
2023/03/17 08:38:07;;;;;;;0.77;0.60;;;;;;;19.84;40.04;100689.22;5035574;27;97782;-75
2023/03/17 08:40:35;;;;;;;0.90;0.55;;;;;;;19.82;39.73;100690.41;5037695;27;96608;-74
2023/03/17 08:43:02;;;;;;;0.77;0.55;;;;;;;19.83;39.79;100692.97;5035763;27;97348;-74
2023/03/17 08:45:28;;;;;;;1.48;0.57;;;;;;;19.85;39.95;100687.34;5040492;27;96830;-74
2023/03/17 08:47:55;;;;;;;1.05;0.73;;;;;;;19.85;39.75;100692.81;5048920;27;96815;-74
2023/03/17 08:50:23;;;;;;;1.00;0.60;;;;;;;19.80;39.63;100700.66;5020211;27;96790;-74
2023/03/17 08:52:51;;;;;;;0.73;0.60;;;;;;;19.75;39.91;100690.25;5017366;27;96663;-74
2023/03/17 08:55:18;;;;;;;0.50;0.43;;;;;;;19.67;40.21;100688.41;5042664;27;96975;-74
2023/03/17 08:57:45;;;;;;;1.30;0.75;;;;;;;19.61;39.89;100680.91;5037163;27;96903;-74
2023/03/17 09:00:14;;;;;;;1.05;0.75;;;;;;;19.57;40.36;100681.44;5046436;27;97059;-74
2023/03/17 09:02:42;;;;;;;2.05;0.75;;;;;;;19.55;40.56;100678.03;5056315;27;96801;-74
2023/03/17 09:05:12;;;;;;;1.52;0.80;;;;;;;19.56;40.18;100669.69;5040029;27;98086;-74
2023/03/17 09:07:40;;;;;;;0.85;0.63;;;;;;;19.50;40.48;100670.34;5017671;27;99160;-75
2023/03/17 09:10:09;;;;;;;2.05;0.90;;;;;;;19.46;40.25;100671.69;5042165;27;96757;-75
2023/03/17 09:12:36;;;;;;;1.48;0.80;;;;;;;19.48;40.73;100683.28;5041433;27;97338;-75
2023/03/17 09:15:04;;;;;;;2.67;0.93;;;;;;;19.55;40.25;100680.75;5023417;27;97578;-75
2023/03/17 09:17:32;;;;;;;0.80;0.60;;;;;;;19.61;40.36;100688.22;5046017;27;97254;-75
2023/03/17 09:19:58;;;;;;;1.38;0.80;;;;;;;19.61;39.91;100697.25;5052657;27;97171;-74
2023/03/17 09:22:25;;;;;;;1.17;0.85;;;;;;;19.64;40.10;100690.63;5049529;27;98758;-74
2023/03/17 09:24:52;;;;;;;1.73;0.60;;;;;;;19.65;39.87;100687.72;5054467;27;97928;-75
2023/03/17 09:27:18;;;;;;;0.80;0.73;;;;;;;19.70;40.08;100689.94;5046499;27;97495;-75
2023/03/17 09:29:45;;;;;;;1.20;0.77;;;;;;;19.73;39.85;100694.19;5047185;27;97085;-74
2023/03/17 09:32:11;;;;;;;1.23;0.77;;;;;;;19.78;40.03;100697.25;5052732;27;96926;-75
2023/03/17 09:34:38;;;;;;;1.27;0.70;;;;;;;19.80;39.65;100687.88;5049979;27;97838;-74
2023/03/17 09:37:05;;;;;;;0.73;0.65;;;;;;;19.84;39.44;100691.09;5049521;27;96751;-75
2023/03/17 09:39:32;;;;;;;0.90;0.63;;;;;;;19.87;39.41;100688.88;5053660;27;96800;-75
2023/03/17 09:42:18;;;;;;;1.15;0.60;;;;;;;19.92;39.32;100688.34;5039958;27;97037;-75
2023/03/17 09:45:16;;;;;;;1.55;0.80;;;;;;;19.92;39.62;100683.75;5027488;27;97088;-75
2023/03/17 09:47:49;;;;;;;1.17;0.73;;;;;;;19.91;39.53;100686.66;5027196;28;98638;-75
2023/03/17 09:50:40;;;;;;;1.17;0.75;;;;;;;19.92;39.52;100688.34;5035026;27;97171;-75
2023/03/17 09:53:15;;;;;;;1.58;1.00;;;;;;;19.93;39.20;100685.47;5021855;27;96896;-75
2023/03/17 09:55:44;;;;;;;1.98;0.93;;;;;;;19.94;39.55;100680.84;5034107;27;98682;-75
2023/03/17 09:58:11;;;;;;;1.30;0.70;;;;;;;19.93;39.50;100677.28;5051396;27;97174;-74
2023/03/17 10:00:38;;;;;;;1.05;0.70;;;;;;;19.93;39.32;100670.97;5053189;27;96749;-75
2023/03/17 10:03:09;;;;;;;1.15;0.73;;;;;;;19.96;39.25;100678.81;5052669;27;96910;-75
2023/03/17 10:05:36;;;;;;;1.13;0.80;;;;;;;19.91;39.60;100681.22;5054365;27;97256;-75
2023/03/17 10:08:19;;;;;;;1.30;0.60;;;;;;;19.89;39.27;100683.25;5052348;27;96898;-74
2023/03/17 10:11:25;;;;;;;1.40;0.77;;;;;;;19.89;39.45;100677.81;5042165;27;97250;-75
2023/03/17 10:14:01;;;;;;;2.22;0.68;;;;;;;19.86;39.48;100679.00;5036162;27;96837;-75
2023/03/17 10:16:40;;;;;;;1.25;0.70;;;;;;;19.88;39.47;100676.09;5048342;27;97208;-74
2023/03/17 10:19:12;;;;;;;1.65;0.70;;;;;;;19.86;39.74;100679.00;5043210;27;98474;-75
2023/03/17 10:21:48;;;;;;;2.05;0.70;;;;;;;19.85;39.69;100677.31;5029513;27;97255;-74
2023/03/17 10:24:15;;;;;;;1.10;0.60;;;;;;;19.88;39.65;100678.84;5033243;27;97032;-74
2023/03/17 10:26:47;;;;;;;2.03;0.68;;;;;;;19.89;39.34;100678.66;5035776;27;96626;-75
2023/03/17 10:29:23;;;;;;;1.48;0.80;;;;;;;19.88;39.57;100684.28;5030923;27;96811;-75
2023/03/17 10:31:52;;;;;;;1.30;0.90;;;;;;;19.82;39.77;100688.53;5049717;27;96712;-74
2023/03/17 10:34:24;;;;;;;2.10;0.95;;;;;;;19.80;39.92;100690.59;5043869;27;97792;-74
2023/03/17 10:36:58;;;;;;;1.10;0.60;;;;;;;19.81;39.60;100695.03;5030986;27;97012;-74
2023/03/17 10:39:25;;;;;;;1.25;0.85;;;;;;;19.85;39.99;100676.44;5034083;27;97357;-74
2023/03/17 10:41:58;;;;;;;1.25;0.60;;;;;;;19.88;39.67;100670.66;5048771;27;96823;-74
2023/03/17 10:45:03;;;;;;;0.98;0.57;;;;;;;19.87;39.68;100664.34;5053133;27;96806;-74
2023/03/17 10:47:33;;;;;;;1.30;0.70;;;;;;;19.88;39.60;100666.06;5016454;27;96956;-74
2023/03/17 10:50:17;;;;;;;1.60;0.93;;;;;;;19.88;39.97;100660.59;5029006;27;97966;-74
2023/03/17 10:52:46;;;;;;;1.95;0.85;;;;;;;19.88;40.04;100657.03;5035483;27;97550;-74
2023/03/17 10:55:20;;;;;;;1.38;0.57;;;;;;;19.86;39.78;100651.75;5049023;27;96843;-74
2023/03/17 10:58:01;;;;;;;0.85;0.73;;;;;;;19.86;39.54;100657.19;5049096;27;97826;-74
2023/03/17 11:00:32;;;;;;;1.90;0.85;;;;;;;19.85;39.60;100671.84;5022241;27;98557;-74
2023/03/17 11:03:08;;;;;;;1.63;0.80;;;;;;;19.83;39.74;100668.44;5048217;27;96723;-74
2023/03/17 11:05:36;;;;;;;1.02;0.65;;;;;;;19.81;40.01;100665.03;5033078;27;96790;-74
2023/03/17 11:08:09;;;;;;;1.63;1.10;;;;;;;19.80;40.04;100667.94;5046971;27;97723;-74
2023/03/17 11:10:38;;;;;;;1.13;0.90;;;;;;;19.78;40.10;100675.44;5052162;27;97366;-74
2023/03/17 11:13:05;;;;;;;1.25;0.80;;;;;;;19.78;40.16;100692.63;5027497;27;97124;-74
2023/03/17 11:16:04;;;;;;;1.80;0.75;;;;;;;19.77;39.94;100674.59;5043015;27;96729;-74
2023/03/17 11:18:36;;;;;;;1.73;0.70;;;;;;;19.72;40.00;100671.53;5038693;27;97751;-74
2023/03/17 11:21:14;;;;;;;0.82;0.57;;;;;;;19.72;40.07;100674.25;5048711;27;97360;-74
2023/03/17 11:23:41;;;;;;;1.40;0.73;;;;;;;19.73;40.17;100664.22;5053863;27;96771;-74
2023/03/17 11:26:25;;;;;;;1.80;0.73;;;;;;;19.69;40.13;100660.97;5049233;27;97016;-74
2023/03/17 11:29:20;;;;;;;1.63;0.98;;;;;;;19.68;40.17;100662.00;5033643;27;96946;-74
2023/03/17 11:32:10;;;;;;;1.25;0.60;;;;;;;19.74;40.18;100657.75;5014819;28;100711;-74
2023/03/17 11:35:14;;;;;;;1.90;0.82;;;;;;;19.77;40.21;100646.50;5014233;27;96664;-75